Time;durP1;ratioP1;P1;durP2;ratioP2;P2;SDS_P1;SDS_P2;PMS_P1;PMS_P2;Temp;Humidity;BMP_temperature;BMP_pressure;BME280_temperature;BME280_humidity;BME280_pressure;Samples;Min_cycle;Max_cycle;Signal;HPM_P1;HPM_P2
2022/04/08 00:01:50;;;;;;;5.37;1.87;;;;;;;9.13;93.49;98846.16;4908688;29;20184;-58
2022/04/08 00:04:16;;;;;;;5.63;1.93;;;;;;;9.15;93.16;98841.78;4911968;29;20563;-57
2022/04/08 00:06:41;;;;;;;5.63;1.80;;;;;;;9.13;93.42;98847.88;4908526;29;20270;-57
2022/04/08 00:09:06;;;;;;;2.80;1.47;;;;;;;9.13;93.60;98853.03;4910567;29;20250;-58
2022/04/08 00:11:32;;;;;;;5.20;2.17;;;;;;;9.19;93.58;98850.31;4909346;29;20185;-57
2022/04/08 00:13:57;;;;;;;4.67;1.70;;;;;;;9.19;93.88;98849.44;4910959;29;20272;-57
2022/04/08 00:16:22;;;;;;;11.13;2.37;;;;;;;9.20;94.14;98861.47;4905133;29;20193;-59
2022/04/08 00:18:48;;;;;;;4.83;2.10;;;;;;;9.16;93.82;98858.13;4906636;29;21228;-58
2022/04/08 00:21:14;;;;;;;4.77;1.50;;;;;;;9.10;93.87;98853.09;4910035;29;20202;-58
2022/04/08 00:23:40;;;;;;;5.40;1.87;;;;;;;9.07;93.05;98856.63;4905074;29;20204;-59
2022/04/08 00:26:05;;;;;;;5.30;1.77;;;;;;;8.99;93.61;98867.16;4909759;29;20207;-58
2022/04/08 00:28:30;;;;;;;5.70;1.87;;;;;;;8.97;94.07;98862.91;4907647;29;20550;-58
2022/04/08 00:30:56;;;;;;;3.10;1.67;;;;;;;8.95;94.25;98868.09;4913263;29;20245;-57
2022/04/08 00:33:21;;;;;;;4.43;1.70;;;;;;;8.97;94.45;98873.25;4910685;29;20712;-58
2022/04/08 00:35:48;;;;;;;5.40;1.83;;;;;;;9.03;93.57;98872.22;4909311;29;20226;-57
2022/04/08 00:38:13;;;;;;;5.53;1.93;;;;;;;9.02;93.45;98879.13;4914859;29;20295;-58
2022/04/08 00:40:39;;;;;;;3.63;1.30;;;;;;;9.03;93.49;98882.56;4915308;29;20758;-57
2022/04/08 00:43:35;;;;;;;2.80;1.63;;;;;;;9.04;93.26;98876.50;4923112;29;20263;-58
2022/04/08 00:46:01;;;;;;;5.20;1.77;;;;;;;9.08;92.03;98896.16;4919327;29;20206;-58
2022/04/08 00:48:27;;;;;;;7.17;1.57;;;;;;;9.08;91.67;98897.03;4916926;29;20191;-59
2022/04/08 00:50:53;;;;;;;4.80;1.47;;;;;;;9.06;91.72;98900.56;4923769;29;20216;-58
2022/04/08 00:53:20;;;;;;;4.63;1.70;;;;;;;9.05;91.66;98893.69;4913358;29;20203;-58
2022/04/08 00:55:45;;;;;;;4.33;1.93;;;;;;;9.07;90.90;98907.41;4914500;29;20196;-57
2022/04/08 00:58:11;;;;;;;4.17;1.67;;;;;;;9.05;90.90;98907.44;4914614;29;20229;-59
2022/04/08 01:00:38;;;;;;;3.53;1.60;;;;;;;9.05;90.72;98897.09;4914356;29;20240;-58
2022/04/08 01:03:04;;;;;;;4.53;1.87;;;;;;;9.04;90.67;98908.31;4928574;29;20601;-59
2022/04/08 01:05:31;;;;;;;3.17;1.40;;;;;;;9.02;91.00;98904.91;4914825;29;20196;-58
2022/04/08 01:07:56;;;;;;;6.03;1.53;;;;;;;9.01;90.99;98900.66;4916973;29;20203;-58
2022/04/08 01:10:22;;;;;;;3.33;1.33;;;;;;;9.05;90.81;98907.44;4913391;29;20577;-58
2022/04/08 01:12:51;;;;;;;4.20;1.20;;;;;;;9.03;91.23;98895.47;4913013;29;20624;-58
2022/04/08 01:15:21;;;;;;;3.50;1.80;;;;;;;9.05;91.41;98901.44;4913612;29;20287;-58
2022/04/08 01:17:47;;;;;;;4.00;1.70;;;;;;;9.05;91.02;98910.00;4912955;29;20647;-56
2022/04/08 01:20:13;;;;;;;4.30;1.37;;;;;;;9.06;91.06;98916.03;4914485;29;20314;-58
2022/04/08 01:22:39;;;;;;;2.40;1.57;;;;;;;9.05;91.16;98912.59;4917889;29;20806;-59
2022/04/08 01:25:09;;;;;;;3.33;1.57;;;;;;;9.10;90.88;98910.75;4915810;29;20204;-57
2022/04/08 01:27:35;;;;;;;4.27;1.80;;;;;;;9.06;91.12;98916.88;4914582;29;20194;-57
2022/04/08 01:30:03;;;;;;;4.07;1.83;;;;;;;9.07;91.19;98922.91;4914355;29;20302;-57
2022/04/08 01:32:28;;;;;;;4.00;1.53;;;;;;;9.03;91.30;98921.28;4917697;29;20285;-58
2022/04/08 01:34:54;;;;;;;6.03;1.57;;;;;;;9.00;91.16;98923.03;4912238;29;20822;-58
2022/04/08 01:37:19;;;;;;;4.73;1.50;;;;;;;9.02;91.02;98932.47;4912016;29;20220;-58
2022/04/08 01:39:45;;;;;;;3.23;1.20;;;;;;;8.98;91.24;98931.72;4913158;29;20293;-58
2022/04/08 01:42:10;;;;;;;3.17;1.10;;;;;;;8.97;91.19;98935.16;4913361;29;20199;-58
2022/04/08 01:44:36;;;;;;;3.07;1.50;;;;;;;8.98;91.13;98942.88;4918246;29;20195;-58
2022/04/08 01:47:02;;;;;;;6.30;1.57;;;;;;;8.98;91.28;98944.59;4914369;28;20188;-58
2022/04/08 01:49:27;;;;;;;4.77;1.30;;;;;;;8.97;91.54;98956.66;4912961;29;20223;-58
2022/04/08 01:51:53;;;;;;;3.03;1.40;;;;;;;8.95;91.23;98948.09;4922222;29;20281;-57
2022/04/08 01:54:18;;;;;;;3.83;1.67;;;;;;;8.93;90.86;98949.84;4913353;29;20271;-58
2022/04/08 01:56:43;;;;;;;3.03;1.07;;;;;;;8.84;90.80;98948.38;4909297;29;20801;-58
2022/04/08 01:59:09;;;;;;;3.80;1.40;;;;;;;8.83;90.86;98948.38;4912296;29;20224;-58
2022/04/08 02:01:34;;;;;;;3.57;1.60;;;;;;;8.81;90.61;98945.00;4918606;29;20192;-58
2022/04/08 02:04:00;;;;;;;4.33;1.60;;;;;;;8.78;90.54;98955.38;4916474;29;20204;-58
2022/04/08 02:06:25;;;;;;;4.17;1.40;;;;;;;8.74;90.65;98946.03;4913045;29;20192;-59
2022/04/08 02:08:52;;;;;;;6.03;1.70;;;;;;;8.72;90.52;98956.38;4907298;29;20204;-57
2022/04/08 02:11:17;;;;;;;4.47;1.90;;;;;;;8.73;90.17;98947.75;4908285;29;20207;-58
2022/04/08 02:13:42;;;;;;;4.57;1.60;;;;;;;8.67;90.06;98946.16;4911126;29;20258;-59
2022/04/08 02:16:08;;;;;;;4.40;1.53;;;;;;;8.63;90.58;98948.84;4911341;29;20189;-59
2022/04/08 02:18:33;;;;;;;2.87;1.30;;;;;;;8.60;90.96;98954.06;4910937;29;20220;-57
2022/04/08 02:21:00;;;;;;;3.80;1.30;;;;;;;8.60;90.96;98960.09;4913575;29;20291;-58
2022/04/08 02:23:25;;;;;;;3.53;1.53;;;;;;;8.64;90.84;98966.03;4909952;29;20644;-57
2022/04/08 02:25:51;;;;;;;3.73;1.40;;;;;;;8.70;90.26;98963.28;4911549;29;20298;-59
2022/04/08 02:28:16;;;;;;;6.17;2.07;;;;;;;8.76;90.14;98968.31;4912566;29;20192;-56
2022/04/08 02:30:41;;;;;;;7.43;1.57;;;;;;;8.76;89.73;98982.97;4906185;29;20250;-59
2022/04/08 02:33:07;;;;;;;4.63;1.90;;;;;;;8.77;89.95;98982.91;4905966;29;20195;-58
2022/04/08 02:35:32;;;;;;;4.23;1.90;;;;;;;8.73;90.28;98985.59;4913686;29;20566;-58
2022/04/08 02:37:57;;;;;;;4.03;1.30;;;;;;;8.66;90.80;98988.31;4906157;29;22095;-59
2022/04/08 02:40:23;;;;;;;3.20;1.13;;;;;;;8.63;90.83;98985.78;4916103;29;20216;-57
2022/04/08 02:42:49;;;;;;;3.53;1.40;;;;;;;8.59;91.09;98997.06;4909004;29;20206;-58
2022/04/08 02:45:14;;;;;;;4.70;1.60;;;;;;;8.60;91.05;99003.06;4911302;29;20202;-58
2022/04/08 02:47:41;;;;;;;6.67;1.60;;;;;;;8.55;91.00;99005.75;4909781;29;20192;-59
2022/04/08 02:50:06;;;;;;;3.03;1.33;;;;;;;8.53;90.74;99002.34;4911367;29;20220;-57
2022/04/08 02:52:32;;;;;;;4.60;1.60;;;;;;;8.53;90.20;98999.78;4910619;29;20271;-57
2022/04/08 02:54:57;;;;;;;4.10;1.77;;;;;;;8.47;89.71;99000.72;4911744;29;20246;-58
2022/04/08 02:57:22;;;;;;;2.00;1.10;;;;;;;8.42;90.11;98999.97;4910544;29;20227;-57
2022/04/08 02:59:50;;;;;;;3.33;1.20;;;;;;;8.41;90.05;99005.16;4908871;29;20294;-57
2022/04/08 03:02:15;;;;;;;4.47;1.60;;;;;;;8.38;90.02;99017.22;4910450;29;20573;-58
2022/04/08 03:04:41;;;;;;;4.73;1.60;;;;;;;8.41;89.45;99010.31;4910278;29;20188;-58
2022/04/08 03:07:06;;;;;;;3.53;1.43;;;;;;;8.34;89.59;99025.91;4910877;29;20210;-58
2022/04/08 03:09:31;;;;;;;2.83;1.60;;;;;;;8.33;89.47;99010.47;4911496;29;20216;-58
2022/04/08 03:11:57;;;;;;;3.80;1.80;;;;;;;8.34;88.87;99023.31;4912476;29;20280;-59
2022/04/08 03:14:22;;;;;;;2.37;1.33;;;;;;;8.33;88.74;99025.94;4912385;29;20203;-59
2022/04/08 03:16:47;;;;;;;3.70;1.53;;;;;;;8.33;88.02;99028.50;4909602;29;20230;-58
2022/04/08 03:19:13;;;;;;;3.47;1.33;;;;;;;8.31;88.32;99038.00;4911108;29;20267;-57
2022/04/08 03:21:38;;;;;;;2.87;1.40;;;;;;;8.32;88.35;99037.13;4908909;29;20199;-58
2022/04/08 03:24:04;;;;;;;3.30;1.47;;;;;;;8.30;88.34;99033.72;4913094;29;20188;-58
2022/04/08 03:26:30;;;;;;;5.37;1.47;;;;;;;8.29;88.41;99038.03;4910516;29;20274;-58
2022/04/08 03:28:55;;;;;;;2.77;1.40;;;;;;;8.28;87.85;99038.06;4904167;28;20209;-58
2022/04/08 03:31:20;;;;;;;4.20;2.07;;;;;;;8.28;87.79;99032.91;4910073;29;20238;-58
2022/04/08 03:33:46;;;;;;;3.53;1.30;;;;;;;8.27;87.62;99036.34;4913993;29;20198;-57
2022/04/08 03:36:11;;;;;;;3.77;1.20;;;;;;;8.27;87.72;99031.19;4911945;29;20644;-58
2022/04/08 03:38:36;;;;;;;3.40;1.40;;;;;;;8.31;87.62;99040.59;4907387;29;20219;-58
2022/04/08 03:41:02;;;;;;;2.70;1.13;;;;;;;8.33;87.48;99034.50;4910296;29;20215;-58
2022/04/08 03:43:28;;;;;;;3.20;1.10;;;;;;;8.33;87.49;99038.81;4912196;29;20624;-57
2022/04/08 03:45:53;;;;;;;2.63;1.20;;;;;;;8.35;87.63;99034.50;4913669;29;20687;-59
2022/04/08 03:48:19;;;;;;;2.47;1.60;;;;;;;8.37;87.70;99030.16;4915040;29;20197;-58
2022/04/08 03:50:44;;;;;;;4.03;1.60;;;;;;;8.37;87.85;99032.75;4916503;29;20214;-59
2022/04/08 03:53:12;;;;;;;1.80;0.90;;;;;;;8.36;88.01;99031.88;4909671;29;20218;-58
2022/04/08 03:55:38;;;;;;;3.90;1.27;;;;;;;8.38;88.17;99034.44;4908117;29;20238;-58
2022/04/08 03:58:03;;;;;;;5.07;1.70;;;;;;;8.38;88.28;99029.28;4925352;29;20220;-58
2022/04/08 04:00:29;;;;;;;3.80;1.40;;;;;;;8.38;88.24;99029.28;4909885;29;20219;-59
2022/04/08 04:02:54;;;;;;;4.07;2.00;;;;;;;8.36;88.45;99028.47;4908224;29;20518;-59
2022/04/08 04:05:20;;;;;;;4.07;1.80;;;;;;;8.37;88.55;99032.75;4909675;29;20226;-59
2022/04/08 04:07:45;;;;;;;5.77;2.00;;;;;;;8.36;88.62;99029.28;4908465;29;20207;-57
2022/04/08 04:10:14;;;;;;;3.97;1.87;;;;;;;8.39;88.67;99021.50;4911803;29;20223;-58
2022/04/08 04:12:41;;;;;;;5.77;1.70;;;;;;;8.38;88.77;99035.28;4908341;29;20251;-59
2022/04/08 04:15:08;;;;;;;6.77;2.70;;;;;;;8.37;88.90;99027.59;4912499;29;20199;-57
2022/04/08 04:17:33;;;;;;;3.73;2.33;;;;;;;8.36;88.80;99018.16;4918209;29;20212;-58
2022/04/08 04:19:59;;;;;;;3.13;1.97;;;;;;;8.35;89.05;99021.59;4912882;29;20861;-56
2022/04/08 04:22:24;;;;;;;3.57;1.80;;;;;;;8.34;89.07;99004.44;4926726;29;20654;-57
2022/04/08 04:24:49;;;;;;;4.23;2.43;;;;;;;8.34;88.78;99010.44;4924583;29;20195;-58
2022/04/08 04:27:15;;;;;;;3.63;1.80;;;;;;;8.33;89.31;99013.06;4913167;29;20183;-58
2022/04/08 04:29:40;;;;;;;4.00;1.90;;;;;;;8.33;89.39;99006.16;4922964;29;20260;-58
2022/04/08 04:32:06;;;;;;;7.03;3.30;;;;;;;8.35;89.34;99016.44;4917794;29;20274;-57
2022/04/08 04:34:33;;;;;;;7.37;3.20;;;;;;;8.33;89.43;99001.00;4911396;29;20649;-58
2022/04/08 04:36:59;;;;;;;5.73;2.43;;;;;;;8.32;89.64;99004.44;4913524;29;20726;-58
2022/04/08 04:39:24;;;;;;;3.67;1.40;;;;;;;8.32;89.91;99004.44;4912889;29;20216;-58
2022/04/08 04:41:49;;;;;;;5.70;1.90;;;;;;;8.33;89.92;99002.75;4917781;29;20197;-57
2022/04/08 04:44:15;;;;;;;3.23;1.43;;;;;;;8.31;90.05;98992.47;4934859;29;20591;-58
2022/04/08 04:46:42;;;;;;;2.07;1.30;;;;;;;8.33;90.23;98997.59;4918249;29;20215;-58
2022/04/08 04:49:08;;;;;;;1.40;1.00;;;;;;;8.33;90.47;98992.44;4921162;29;20286;-58
2022/04/08 04:51:33;;;;;;;2.73;1.30;;;;;;;8.33;90.66;98985.53;4910733;29;20211;-58
2022/04/08 04:53:59;;;;;;;2.70;1.20;;;;;;;8.33;90.64;98974.38;4915763;29;20191;-58
2022/04/08 04:56:25;;;;;;;4.40;1.77;;;;;;;8.32;90.82;98986.41;4919019;29;20188;-58
2022/04/08 04:58:51;;;;;;;1.90;1.17;;;;;;;8.32;90.97;98990.72;4923558;29;20229;-57
2022/04/08 05:01:16;;;;;;;3.37;1.50;;;;;;;8.32;91.10;98983.00;4917607;29;20192;-58
2022/04/08 05:03:41;;;;;;;5.80;1.70;;;;;;;8.32;91.16;98985.56;4916679;29;20564;-58
2022/04/08 05:06:07;;;;;;;3.00;1.40;;;;;;;8.33;91.36;98995.00;4927305;29;20527;-58
2022/04/08 05:08:32;;;;;;;4.03;1.53;;;;;;;8.32;91.34;99001.03;4912204;29;20192;-57
2022/04/08 05:10:58;;;;;;;3.67;1.50;;;;;;;8.33;91.30;99002.75;4919099;29;20743;-56
2022/04/08 05:13:23;;;;;;;3.73;1.73;;;;;;;8.35;91.02;99008.72;4924873;29;20189;-59
2022/04/08 05:15:49;;;;;;;5.57;1.60;;;;;;;8.36;90.84;99005.25;4915246;29;20211;-60
2022/04/08 05:18:14;;;;;;;4.00;1.43;;;;;;;8.38;90.54;98999.19;4922914;29;20223;-57
2022/04/08 05:20:40;;;;;;;7.70;1.73;;;;;;;8.42;89.60;98996.53;4923913;29;20220;-56
2022/04/08 05:23:05;;;;;;;5.13;1.50;;;;;;;8.38;90.12;99009.50;4924659;29;20207;-57
2022/04/08 05:25:30;;;;;;;2.83;1.50;;;;;;;8.38;90.70;99006.91;4915895;29;20198;-57
2022/04/08 05:27:56;;;;;;;4.37;1.60;;;;;;;8.38;90.62;99000.94;4918815;29;20275;-57
2022/04/08 05:30:21;;;;;;;8.03;5.47;;;;;;;8.41;90.86;99008.56;4907903;29;20216;-58
2022/04/08 05:32:47;;;;;;;18.17;9.03;;;;;;;8.44;90.83;98999.94;4909592;29;20256;-57
2022/04/08 05:35:17;;;;;;;11.77;4.97;;;;;;;8.48;90.91;99002.44;4920089;29;20411;-56
2022/04/08 05:37:45;;;;;;;14.27;6.50;;;;;;;8.49;91.14;98999.00;4909929;29;20566;-57
2022/04/08 05:40:18;;;;;;;13.53;4.77;;;;;;;8.54;91.41;99004.03;4913575;29;20211;-59
2022/04/08 05:42:44;;;;;;;5.67;2.57;;;;;;;8.59;91.40;98994.50;4909414;29;20199;-59
2022/04/08 05:45:11;;;;;;;8.07;2.50;;;;;;;8.61;91.46;98989.28;4918532;29;20627;-58
2022/04/08 05:47:36;;;;;;;5.43;2.00;;;;;;;8.65;90.91;98998.66;4904672;29;20204;-58
2022/04/08 05:50:03;;;;;;;2.13;1.40;;;;;;;8.62;88.37;98989.25;4911512;29;20215;-56
2022/04/08 05:52:28;;;;;;;4.27;1.77;;;;;;;8.65;87.49;98983.19;4920076;29;20244;-58
2022/04/08 05:54:54;;;;;;;2.53;1.40;;;;;;;8.67;86.83;98984.00;4919451;29;20204;-58
2022/04/08 05:57:19;;;;;;;3.37;1.43;;;;;;;8.65;87.42;98980.63;4918600;29;20207;-57
2022/04/08 05:59:49;;;;;;;3.77;1.33;;;;;;;8.67;87.86;98984.84;4913835;29;20276;-59
2022/04/08 06:02:15;;;;;;;5.13;1.50;;;;;;;8.71;87.69;98975.31;4924674;29;21444;-56
2022/04/08 06:04:40;;;;;;;3.10;1.20;;;;;;;8.76;87.63;98981.22;4911126;29;20223;-59
2022/04/08 06:07:06;;;;;;;4.53;1.50;;;;;;;8.84;87.99;98981.03;4912315;29;20226;-58
2022/04/08 06:09:32;;;;;;;3.70;1.30;;;;;;;8.94;89.02;98984.25;4915391;29;20216;-58
2022/04/08 06:11:58;;;;;;;5.13;2.00;;;;;;;8.98;89.81;98989.31;4910138;29;20196;-57
2022/04/08 06:14:23;;;;;;;4.23;1.67;;;;;;;9.03;90.42;98978.03;4912537;29;20312;-57
2022/04/08 06:16:49;;;;;;;2.77;1.27;;;;;;;9.02;88.61;98978.91;4910131;29;20637;-57
2022/04/08 06:19:14;;;;;;;4.43;1.40;;;;;;;8.91;88.84;98985.19;4919692;29;20232;-58
2022/04/08 06:21:39;;;;;;;4.73;1.53;;;;;;;8.89;89.33;98978.34;4921697;29;20203;-58
2022/04/08 06:24:05;;;;;;;4.77;1.33;;;;;;;8.84;89.60;98975.88;4917279;29;20185;-58
2022/04/08 06:26:32;;;;;;;2.13;1.20;;;;;;;8.82;89.82;98980.22;4929696;29;20282;-59
2022/04/08 06:28:58;;;;;;;1.73;1.27;;;;;;;8.82;89.94;98980.22;4912175;29;20195;-59
2022/04/08 06:31:28;;;;;;;2.23;0.93;;;;;;;8.79;90.34;98973.41;4911967;29;20195;-57
2022/04/08 06:33:54;;;;;;;1.70;0.80;;;;;;;8.76;90.95;98973.47;4919605;29;20196;-59
2022/04/08 06:36:19;;;;;;;3.73;1.40;;;;;;;8.73;91.25;98973.53;4915192;29;20266;-58
2022/04/08 06:38:48;;;;;;;3.10;1.27;;;;;;;8.69;91.83;98971.94;4918524;29;20641;-57
2022/04/08 06:41:14;;;;;;;2.57;1.00;;;;;;;8.66;92.34;98975.41;4910806;29;20565;-58
2022/04/08 06:43:39;;;;;;;2.23;1.03;;;;;;;8.64;92.57;98964.28;4929878;29;20270;-57
2022/04/08 06:46:04;;;;;;;2.97;1.13;;;;;;;8.62;93.62;98971.19;4924948;29;20203;-57
2022/04/08 06:48:30;;;;;;;2.60;1.30;;;;;;;8.60;94.04;98977.28;4924102;29;20198;-59
2022/04/08 06:50:58;;;;;;;2.07;1.00;;;;;;;8.64;94.47;98960.88;4914490;29;20681;-57
2022/04/08 06:53:24;;;;;;;2.73;1.00;;;;;;;8.62;94.76;98960.88;4913313;29;20198;-58
2022/04/08 06:55:50;;;;;;;2.93;1.10;;;;;;;8.62;95.41;98954.88;4918279;29;20198;-58
2022/04/08 06:58:15;;;;;;;2.97;1.07;;;;;;;8.60;96.27;98952.34;4920952;29;20222;-58
2022/04/08 07:00:40;;;;;;;4.23;1.20;;;;;;;8.56;96.94;98948.13;4906922;29;20359;-58
2022/04/08 07:03:06;;;;;;;2.70;1.00;;;;;;;8.58;97.66;98945.50;4920561;29;20206;-58
2022/04/08 07:05:31;;;;;;;2.27;1.00;;;;;;;8.56;98.00;98937.81;4917415;29;20190;-57
2022/04/08 07:07:57;;;;;;;2.10;1.00;;;;;;;8.57;98.34;98934.38;4915191;29;20199;-57
2022/04/08 07:10:22;;;;;;;2.60;1.10;;;;;;;8.58;98.76;98941.22;4918648;29;20293;-57
2022/04/08 07:12:48;;;;;;;2.60;1.27;;;;;;;8.56;99.22;98932.66;4921143;29;20195;-57
2022/04/08 07:15:13;;;;;;;1.77;1.00;;;;;;;8.57;99.78;98936.94;4912847;29;20233;-57
2022/04/08 07:17:38;;;;;;;3.57;1.30;;;;;;;8.58;100.00;98927.47;4917613;29;20216;-57
2022/04/08 07:20:05;;;;;;;3.23;1.53;;;;;;;8.60;100.00;98924.00;4915918;29;20223;-58
2022/04/08 07:22:31;;;;;;;4.03;1.40;;;;;;;8.59;100.00;98921.44;4918761;29;20251;-57
2022/04/08 07:24:56;;;;;;;3.20;1.20;;;;;;;8.57;100.00;98913.75;4915362;29;20202;-57
2022/04/08 07:27:22;;;;;;;2.03;1.30;;;;;;;8.59;100.00;98921.44;4923301;29;20612;-58
2022/04/08 07:29:49;;;;;;;4.47;1.40;;;;;;;8.60;100.00;98912.81;4925860;29;20235;-58
2022/04/08 07:32:21;;;;;;;3.07;1.30;;;;;;;8.60;100.00;98910.22;4912821;29;20712;-58
2022/04/08 07:34:48;;;;;;;3.93;1.47;;;;;;;8.65;100.00;98901.50;4917838;29;20602;-58
2022/04/08 07:37:13;;;;;;;2.93;1.30;;;;;;;8.71;100.00;98900.50;4928862;29;20219;-57
2022/04/08 07:39:41;;;;;;;3.87;1.60;;;;;;;8.77;100.00;98887.47;4918459;29;20209;-57
2022/04/08 07:42:07;;;;;;;5.63;1.90;;;;;;;8.80;100.00;98897.72;4917242;29;20733;-57
2022/04/08 07:44:33;;;;;;;3.93;1.30;;;;;;;8.80;100.00;98900.31;4932029;29;20642;-56
2022/04/08 07:46:58;;;;;;;4.57;1.60;;;;;;;8.82;100.00;98901.13;4922787;29;20195;-57
2022/04/08 07:49:23;;;;;;;3.60;1.33;;;;;;;8.84;100.00;98890.75;4927039;29;20274;-57
2022/04/08 07:51:49;;;;;;;3.10;1.43;;;;;;;8.83;100.00;98886.47;4919795;29;20195;-57
2022/04/08 07:54:14;;;;;;;3.57;1.40;;;;;;;8.87;100.00;98875.19;4919705;29;20184;-58
2022/04/08 07:56:39;;;;;;;2.23;1.47;;;;;;;8.90;100.00;98877.72;4908144;29;20617;-57
2022/04/08 07:59:05;;;;;;;5.40;1.43;;;;;;;8.92;100.00;98870.78;4916333;29;20637;-58
2022/04/08 08:01:30;;;;;;;2.83;1.20;;;;;;;8.94;100.00;98861.25;4921124;29;20205;-56
2022/04/08 08:03:55;;;;;;;3.23;1.40;;;;;;;9.00;100.00;98858.53;4929509;29;20195;-58
2022/04/08 08:06:21;;;;;;;4.03;1.60;;;;;;;9.06;100.00;98860.09;4914151;29;20205;-58
2022/04/08 08:08:46;;;;;;;3.67;1.30;;;;;;;9.15;100.00;98857.25;4923385;29;20195;-58
2022/04/08 08:11:13;;;;;;;1.60;1.00;;;;;;;9.26;100.00;98859.56;4919526;29;20684;-58
2022/04/08 08:13:39;;;;;;;2.67;1.40;;;;;;;9.39;100.00;98851.47;4915559;29;20276;-56
2022/04/08 08:16:07;;;;;;;2.80;1.33;;;;;;;9.50;100.00;98851.19;4916386;29;20244;-58
2022/04/08 08:18:35;;;;;;;2.33;1.20;;;;;;;9.55;100.00;98845.00;4914439;29;20212;-57
2022/04/08 08:21:01;;;;;;;3.53;1.27;;;;;;;9.57;100.00;98843.25;4927489;29;20321;-58
2022/04/08 08:23:27;;;;;;;2.63;1.30;;;;;;;9.58;100.00;98851.84;4931298;29;20282;-57
2022/04/08 08:25:53;;;;;;;3.30;1.33;;;;;;;9.57;100.00;98842.41;4934933;29;20188;-57
2022/04/08 08:28:18;;;;;;;1.83;1.00;;;;;;;9.55;100.00;98839.00;4927739;29;20190;-58
2022/04/08 08:30:45;;;;;;;2.90;1.17;;;;;;;9.54;100.00;98838.16;4929892;29;20642;-57
2022/04/08 08:33:11;;;;;;;2.57;1.20;;;;;;;9.55;100.00;98832.09;4930792;29;20197;-57
2022/04/08 08:35:36;;;;;;;2.90;1.20;;;;;;;9.52;100.00;98818.44;4929449;29;20253;-56
2022/04/08 08:38:02;;;;;;;2.40;0.93;;;;;;;9.55;100.00;98818.34;4913220;29;20283;-58
2022/04/08 08:40:31;;;;;;;1.93;0.90;;;;;;;9.58;100.00;98826.84;4909549;29;20227;-57
2022/04/08 08:42:58;;;;;;;1.70;0.80;;;;;;;9.61;100.00;98813.84;4926740;29;20201;-57
2022/04/08 08:45:28;;;;;;;2.67;0.90;;;;;;;9.66;100.00;98807.72;4929443;29;20218;-59
2022/04/08 08:47:59;;;;;;;2.20;0.90;;;;;;;9.73;100.00;98806.63;4930522;29;20267;-57
2022/04/08 08:50:24;;;;;;;1.77;0.80;;;;;;;9.81;100.00;98802.09;4926686;29;20743;-57
2022/04/08 08:52:51;;;;;;;2.47;1.00;;;;;;;9.87;100.00;98796.75;4909629;29;20197;-59
2022/04/08 08:55:17;;;;;;;1.13;0.57;;;;;;;9.96;100.00;98794.78;4919881;29;20259;-57
2022/04/08 08:57:45;;;;;;;0.97;0.70;;;;;;;10.01;100.00;98782.53;4929653;29;20212;-56
2022/04/08 09:00:13;;;;;;;1.97;0.80;;;;;;;10.10;100.00;98773.66;4920516;29;20768;-57
2022/04/08 09:02:40;;;;;;;1.17;0.93;;;;;;;10.17;100.00;98778.59;4924082;29;20224;-57
2022/04/08 09:05:25;;;;;;;1.60;0.90;;;;;;;10.25;100.00;98780.09;4918224;29;20207;-56
2022/04/08 09:08:06;;;;;;;2.77;0.90;;;;;;;10.31;100.00;98773.00;4914980;29;20208;-57
2022/04/08 09:10:34;;;;;;;3.20;1.03;;;;;;;10.42;100.00;98769.22;4922816;29;20218;-57
2022/04/08 09:13:00;;;;;;;1.20;0.80;;;;;;;10.47;100.00;98767.34;4924358;29;20203;-57
2022/04/08 09:15:26;;;;;;;2.23;0.87;;;;;;;10.46;100.00;98763.91;4919608;29;20191;-57
2022/04/08 09:17:52;;;;;;;1.43;0.80;;;;;;;10.42;100.00;98754.56;4918846;29;20239;-56
2022/04/08 09:20:18;;;;;;;1.43;0.90;;;;;;;10.40;100.00;98752.91;4916681;29;20211;-56
2022/04/08 09:22:55;;;;;;;2.00;1.03;;;;;;;10.41;100.00;98747.72;4921046;29;20195;-57
2022/04/08 09:25:25;;;;;;;1.23;0.70;;;;;;;10.42;100.00;98739.06;4926801;29;20192;-56
2022/04/08 09:27:50;;;;;;;2.40;0.90;;;;;;;10.46;100.00;98737.22;4922299;29;20191;-57
2022/04/08 09:30:20;;;;;;;1.03;0.77;;;;;;;10.48;100.00;98732.84;4921884;29;20217;-57
2022/04/08 09:32:45;;;;;;;2.07;0.80;;;;;;;10.44;100.00;98716.56;4922950;29;20199;-57
2022/04/08 09:35:19;;;;;;;1.43;1.00;;;;;;;10.39;100.00;98710.72;4915969;29;20622;-57
2022/04/08 09:38:00;;;;;;;1.87;0.90;;;;;;;10.39;100.00;98704.69;4921438;29;20711;-57
2022/04/08 09:40:25;;;;;;;0.80;0.80;;;;;;;10.39;100.00;98702.94;4922929;29;20227;-57
2022/04/08 09:42:51;;;;;;;3.27;1.23;;;;;;;10.43;100.00;98691.63;4916524;29;20205;-58
2022/04/08 09:45:27;;;;;;;1.47;0.60;;;;;;;10.49;100.00;98687.97;4927838;29;20203;-56
2022/04/08 09:50:28;;;;;;;1.30;0.50;;;;;;;10.54;100.00;98672.28;5755831;23;20233;-57
2022/04/08 09:52:54;;;;;;;1.53;0.80;;;;;;;10.53;100.00;98668.84;4953826;28;20265;-57
2022/04/08 09:55:22;;;;;;;1.27;0.70;;;;;;;10.55;100.00;98658.47;4963238;28;20696;-57
2022/04/08 09:57:53;;;;;;;1.73;0.70;;;;;;;10.52;100.00;98654.22;4968513;28;20563;-57
2022/04/08 10:00:19;;;;;;;1.37;0.80;;;;;;;10.51;100.00;98644.78;4949904;28;20209;-59
2022/04/08 10:02:46;;;;;;;1.27;0.67;;;;;;;10.52;100.00;98643.88;4963959;28;20230;-59
2022/04/08 10:05:12;;;;;;;1.53;0.70;;;;;;;10.51;100.00;98639.63;4952453;28;20195;-56
2022/04/08 10:07:43;;;;;;;1.83;0.97;;;;;;;10.53;100.00;98637.81;4955236;28;20699;-58
2022/04/08 10:10:33;;;;;;;0.90;0.70;;;;;;;10.57;100.00;98631.63;4939289;28;20922;-59
2022/04/08 10:13:30;;;;;;;1.03;0.80;;;;;;;10.58;100.00;98628.16;4957575;28;20275;-57
2022/04/08 10:16:00;;;;;;;1.93;0.90;;;;;;;10.55;100.00;98624.84;4964712;28;20264;-57
2022/04/08 10:18:37;;;;;;;1.03;0.70;;;;;;;10.54;100.00;98617.97;4953634;28;20210;-58
2022/04/08 10:21:03;;;;;;;0.90;0.63;;;;;;;10.55;100.00;98622.25;4947212;28;20211;-57
2022/04/08 10:23:47;;;;;;;1.50;0.77;;;;;;;10.53;100.00;98624.88;4953218;28;20191;-57
2022/04/08 10:26:24;;;;;;;1.20;0.63;;;;;;;10.52;100.00;98624.03;4948998;28;20186;-56
2022/04/08 10:28:51;;;;;;;1.30;0.70;;;;;;;10.52;100.00;98624.03;4952159;28;20188;-57
2022/04/08 10:31:18;;;;;;;1.10;0.70;;;;;;;10.53;100.00;98627.44;4969039;28;20213;-57
2022/04/08 10:34:02;;;;;;;1.63;0.60;;;;;;;10.55;100.00;98617.06;4951239;28;20198;-57
2022/04/08 10:36:43;;;;;;;1.33;0.70;;;;;;;10.56;100.00;98604.06;4961608;28;21005;-55
2022/04/08 10:39:12;;;;;;;1.03;0.60;;;;;;;10.56;100.00;98603.25;4948502;28;20294;-57
2022/04/08 10:41:50;;;;;;;1.33;0.60;;;;;;;10.55;100.00;98584.28;4962320;28;20293;-57
2022/04/08 10:44:28;;;;;;;1.57;0.67;;;;;;;10.55;100.00;98575.69;4964263;28;20272;-57
2022/04/08 10:46:54;;;;;;;1.47;0.70;;;;;;;10.57;100.00;98579.06;4961107;28;20269;-56
2022/04/08 10:49:19;;;;;;;0.93;0.60;;;;;;;10.60;100.00;98566.00;4954091;28;20347;-57
2022/04/08 10:51:46;;;;;;;1.30;0.63;;;;;;;10.63;100.00;98556.41;4968370;28;20292;-57
2022/04/08 10:54:12;;;;;;;1.17;0.77;;;;;;;10.51;97.96;98549.94;4956643;28;20186;-58
2022/04/08 10:56:37;;;;;;;1.33;0.83;;;;;;;10.28;99.07;98537.81;4968940;28;20255;-57
2022/04/08 10:59:04;;;;;;;0.70;0.70;;;;;;;10.08;100.00;98533.34;4960254;28;20293;-57
2022/04/08 11:01:34;;;;;;;1.57;0.80;;;;;;;9.83;100.00;98530.75;4952658;28;20548;-57
2022/04/08 11:04:09;;;;;;;2.27;0.57;;;;;;;9.69;100.00;98521.75;4964699;28;20190;-57
2022/04/08 11:06:36;;;;;;;0.50;0.47;;;;;;;9.61;100.00;98521.13;4968422;28;20225;-56
2022/04/08 11:09:08;;;;;;;1.90;0.87;;;;;;;9.59;100.00;98510.88;4962959;28;20336;-57
2022/04/08 11:11:35;;;;;;;2.30;1.07;;;;;;;9.57;100.00;98512.66;4964160;28;20217;-57
2022/04/08 11:14:03;;;;;;;0.97;0.87;;;;;;;9.51;100.00;98512.03;4957028;28;20202;-57
2022/04/08 11:16:31;;;;;;;2.27;0.90;;;;;;;9.38;100.00;98509.00;4963120;28;20194;-56
2022/04/08 11:21:41;;;;;;;1.73;0.90;;;;;;;9.05;100.00;98496.31;5950068;23;20173;-55
2022/04/08 11:24:08;;;;;;;2.30;1.13;;;;;;;8.80;100.00;98494.47;4954555;28;20596;-57
2022/04/08 11:26:45;;;;;;;1.53;1.00;;;;;;;8.56;100.00;98490.88;4945718;29;20225;-57
2022/04/08 11:29:16;;;;;;;2.57;1.10;;;;;;;8.32;100.00;98480.38;4951234;28;20650;-56
2022/04/08 11:31:43;;;;;;;1.00;0.90;;;;;;;8.18;100.00;98457.56;4954931;28;20214;-57
2022/04/08 11:34:08;;;;;;;1.33;0.97;;;;;;;8.19;100.00;98454.97;4962427;28;20287;-59
2022/04/08 11:36:35;;;;;;;1.37;1.10;;;;;;;8.12;100.00;98455.19;4960508;28;20272;-57
2022/04/08 11:39:01;;;;;;;1.70;0.90;;;;;;;7.96;100.00;98435.00;4953554;28;20341;-56
2022/04/08 11:41:28;;;;;;;4.17;1.00;;;;;;;7.53;100.00;98423.31;4953031;28;20273;-57